createdAt,value
2018-05-14T00:00:04.429Z,14.30
2018-05-14T00:02:32.615Z,14.20
2018-05-14T00:05:00.822Z,14.20
2018-05-14T00:07:29.030Z,14.20
2018-05-14T00:09:57.218Z,14.10
2018-05-14T00:12:25.552Z,14.10
2018-05-14T00:14:54.206Z,14.10
2018-05-14T00:17:23.153Z,14.00
2018-05-14T00:19:52.087Z,14.00
2018-05-14T00:22:20.298Z,14.00
2018-05-14T00:24:49.407Z,14.00
2018-05-14T00:27:17.593Z,13.90
2018-05-14T00:29:46.013Z,13.90
2018-05-14T00:32:14.960Z,13.90
2018-05-14T00:34:43.158Z,13.90
2018-05-14T00:37:11.363Z,13.90
2018-05-14T00:39:39.533Z,13.80
2018-05-14T00:42:07.735Z,13.80
2018-05-14T00:44:35.929Z,13.80
2018-05-14T00:47:04.108Z,13.70
2018-05-14T00:49:32.309Z,13.70
2018-05-14T00:52:01.327Z,13.70
2018-05-14T00:54:29.497Z,13.70
2018-05-14T00:56:58.443Z,13.60
2018-05-14T00:59:26.672Z,13.60
2018-05-14T01:01:54.840Z,13.60
2018-05-14T01:04:23.066Z,13.60
2018-05-14T01:06:51.292Z,13.50
2018-05-14T01:09:19.470Z,13.50
2018-05-14T01:11:47.641Z,13.50
2018-05-14T01:14:15.840Z,13.50
2018-05-14T01:16:44.045Z,13.40
2018-05-14T01:19:12.271Z,13.40
2018-05-14T01:21:40.470Z,13.30
2018-05-14T01:24:08.643Z,13.40
2018-05-14T01:26:36.830Z,13.30
2018-05-14T01:29:05.035Z,13.30
2018-05-14T01:31:33.237Z,13.30
2018-05-14T01:34:01.404Z,13.30
2018-05-14T01:36:30.361Z,13.30
2018-05-14T01:38:58.541Z,13.20
2018-05-14T01:41:26.720Z,13.20
2018-05-14T01:43:54.928Z,13.20
2018-05-14T01:46:23.862Z,13.20
2018-05-14T01:48:52.028Z,13.20
2018-05-14T01:51:20.246Z,13.10
2018-05-14T01:53:48.424Z,13.10
2018-05-14T01:56:17.413Z,13.10
2018-05-14T01:58:45.621Z,13.10
2018-05-14T02:01:13.805Z,13.10
2018-05-14T02:03:41.992Z,13.10
2018-05-14T02:06:10.184Z,13.10
2018-05-14T02:08:38.385Z,13.10
2018-05-14T02:11:06.614Z,13.10
2018-05-14T02:16:09.967Z,13.00
2018-05-14T02:18:38.155Z,13.00
2018-05-14T02:21:06.333Z,12.90
2018-05-14T02:23:34.529Z,12.90
2018-05-14T02:26:02.731Z,12.90
2018-05-14T02:28:30.901Z,12.90
2018-05-14T02:31:00.241Z,12.90
2018-05-14T02:33:28.412Z,12.80
2018-05-14T02:35:57.369Z,12.80
2018-05-14T02:38:25.572Z,12.80
2018-05-14T02:40:53.750Z,12.70
2018-05-14T02:43:21.935Z,12.70
2018-05-14T02:45:51.079Z,12.70
2018-05-14T02:48:19.265Z,12.60
2018-05-14T02:50:47.444Z,12.60
2018-05-14T02:53:15.658Z,12.60
2018-05-14T02:55:43.853Z,12.60
2018-05-14T02:58:12.031Z,12.50
2018-05-14T03:00:41.068Z,12.50
2018-05-14T03:03:09.338Z,12.50
2018-05-14T03:05:37.507Z,12.50
2018-05-14T03:08:05.756Z,12.50
2018-05-14T03:10:33.996Z,12.50
2018-05-14T03:13:02.177Z,12.50
2018-05-14T03:15:30.388Z,12.50
2018-05-14T03:17:58.589Z,12.50
2018-05-14T03:20:26.777Z,12.50
2018-05-14T03:22:55.002Z,12.50
2018-05-14T03:25:23.933Z,12.50
2018-05-14T03:27:52.103Z,12.50
2018-05-14T03:30:20.302Z,12.40
2018-05-14T03:32:48.495Z,12.40
2018-05-14T03:35:17.513Z,12.40
2018-05-14T03:37:46.484Z,12.40
2018-05-14T03:40:15.506Z,12.40
2018-05-14T03:42:44.397Z,12.50
2018-05-14T03:45:12.599Z,12.50
2018-05-14T03:47:40.784Z,12.50
2018-05-14T03:50:08.971Z,12.50
2018-05-14T03:52:37.163Z,12.50
2018-05-14T03:55:05.363Z,12.60
2018-05-14T03:57:33.536Z,12.60
2018-05-14T04:00:19.528Z,12.60
2018-05-14T04:03:05.243Z,12.60
2018-05-14T04:05:51.202Z,12.50
2018-05-14T04:08:20.240Z,12.50
2018-05-14T04:10:49.249Z,12.50
2018-05-14T04:13:17.448Z,12.40
2018-05-14T04:15:45.643Z,12.40
2018-05-14T04:18:13.920Z,12.40
2018-05-14T04:20:42.128Z,12.40
2018-05-14T04:23:10.326Z,12.40
2018-05-14T04:25:38.509Z,12.40
2018-05-14T04:28:06.755Z,12.40
2018-05-14T04:30:34.952Z,12.30
2018-05-14T04:33:03.147Z,12.30
2018-05-14T04:35:31.349Z,12.40
2018-05-14T04:37:59.521Z,12.40
2018-05-14T04:40:27.695Z,12.40
2018-05-14T04:42:55.899Z,12.40
2018-05-14T04:45:24.073Z,12.40
2018-05-14T04:47:52.250Z,12.40
2018-05-14T04:50:20.450Z,12.40
2018-05-14T04:52:48.643Z,12.40
2018-05-14T04:55:16.858Z,12.40
2018-05-14T04:57:45.053Z,12.40
2018-05-14T05:00:14.040Z,12.40
2018-05-14T05:02:42.231Z,12.40
2018-05-14T05:05:10.424Z,12.40
2018-05-14T05:07:38.612Z,12.50
2018-05-14T05:10:06.798Z,12.50
2018-05-14T05:12:35.013Z,12.50
2018-05-14T05:15:03.277Z,12.50
2018-05-14T05:17:31.451Z,12.60
2018-05-14T05:19:59.666Z,12.60
2018-05-14T05:22:27.853Z,12.60
2018-05-14T05:24:56.020Z,12.70
2018-05-14T05:27:24.228Z,12.70
2018-05-14T05:29:52.415Z,12.80
2018-05-14T05:32:20.617Z,12.80
2018-05-14T05:34:49.438Z,12.90
2018-05-14T05:37:17.602Z,12.70
2018-05-14T05:39:45.785Z,13.00
2018-05-14T05:42:13.976Z,13.10
2018-05-14T05:44:42.925Z,13.10
2018-05-14T05:47:11.159Z,13.20
2018-05-14T05:49:39.368Z,13.30
2018-05-14T05:52:07.562Z,13.30
2018-05-14T05:54:35.755Z,13.40
2018-05-14T05:57:03.953Z,13.40
2018-05-14T05:59:32.884Z,13.40
2018-05-14T06:02:01.057Z,13.50
2018-05-14T06:04:29.248Z,13.50
2018-05-14T06:06:57.448Z,13.60
2018-05-14T06:09:26.493Z,13.60
2018-05-14T06:11:55.461Z,13.60
2018-05-14T06:14:24.407Z,13.60
2018-05-14T06:16:52.592Z,13.60
2018-05-14T06:19:20.806Z,13.60
2018-05-14T06:21:48.983Z,13.70
2018-05-14T06:24:17.185Z,13.70
2018-05-14T06:26:45.381Z,13.70
2018-05-14T06:29:13.569Z,13.80
2018-05-14T06:31:41.756Z,13.80
2018-05-14T06:34:09.995Z,13.80
2018-05-14T06:36:38.181Z,13.90
2018-05-14T06:39:06.431Z,14.00
2018-05-14T06:41:34.626Z,14.00
2018-05-14T06:44:02.818Z,14.10
2018-05-14T06:46:30.998Z,14.20
2018-05-14T06:48:59.201Z,14.30
2018-05-14T06:51:27.384Z,14.20
2018-05-14T06:53:55.573Z,14.30
2018-05-14T06:56:23.787Z,14.20
2018-05-14T06:58:51.964Z,14.20
2018-05-14T07:01:20.140Z,14.20
2018-05-14T07:03:50.862Z,14.20
2018-05-14T07:06:19.037Z,14.20
2018-05-14T07:08:47.392Z,14.30
2018-05-14T07:11:15.590Z,14.40
2018-05-14T07:13:43.768Z,14.40
2018-05-14T07:16:11.954Z,14.50
2018-05-14T07:18:40.161Z,14.60
2018-05-14T07:21:08.366Z,14.60
2018-05-14T07:23:36.585Z,14.70
2018-05-14T07:26:04.787Z,14.80
2018-05-14T07:28:32.956Z,14.90
2018-05-14T07:31:01.130Z,15.00
2018-05-14T07:33:30.743Z,15.10
2018-05-14T07:35:58.945Z,15.20
2018-05-14T07:38:27.124Z,15.30
2018-05-14T07:40:55.338Z,15.40
2018-05-14T07:43:23.509Z,15.40
2018-05-14T07:45:51.687Z,15.50
2018-05-14T07:48:20.573Z,15.60
2018-05-14T07:53:23.204Z,15.70
2018-05-14T07:55:51.381Z,15.80
2018-05-14T07:58:19.561Z,15.80
2018-05-14T08:00:47.754Z,15.80
2018-05-14T08:03:15.927Z,15.90
2018-05-14T08:05:44.189Z,15.90
2018-05-14T08:08:12.355Z,16.00
2018-05-14T08:10:40.524Z,16.10
2018-05-14T08:13:08.691Z,16.20
2018-05-14T08:15:36.931Z,16.30
2018-05-14T08:18:05.111Z,16.40
2018-05-14T08:20:33.959Z,16.50
2018-05-14T08:23:02.246Z,16.60
2018-05-14T08:25:30.421Z,16.70
2018-05-14T08:27:58.635Z,16.80
2018-05-14T08:30:26.832Z,16.90
2018-05-14T08:32:55.793Z,16.90
2018-05-14T08:35:24.022Z,17.00
2018-05-14T08:37:52.216Z,17.00
2018-05-14T08:40:20.457Z,17.10
2018-05-14T08:42:48.632Z,17.20
2018-05-14T08:45:16.835Z,17.20
2018-05-14T08:47:45.051Z,17.30
2018-05-14T08:50:13.295Z,17.50
2018-05-14T08:52:41.532Z,17.50
2018-05-14T08:55:09.720Z,17.60
2018-05-14T08:57:37.974Z,17.70
2018-05-14T09:00:06.218Z,17.80
2018-05-14T09:02:35.093Z,17.90
2018-05-14T09:05:03.286Z,18.00
2018-05-14T09:07:31.491Z,18.10
2018-05-14T09:09:59.677Z,18.10
2018-05-14T09:12:27.844Z,17.80
2018-05-14T09:14:56.871Z,18.10
2018-05-14T09:17:25.941Z,18.10
2018-05-14T09:19:54.141Z,18.10
2018-05-14T09:22:22.363Z,18.10
2018-05-14T09:24:50.538Z,18.10
2018-05-14T09:27:18.803Z,18.10
2018-05-14T09:29:47.014Z,18.20
2018-05-14T09:32:15.188Z,18.20
2018-05-14T09:34:43.367Z,18.30
2018-05-14T09:37:11.579Z,18.30
2018-05-14T09:39:39.820Z,18.40
2018-05-14T09:42:08.008Z,18.50
2018-05-14T09:44:36.234Z,18.60
2018-05-14T09:47:04.433Z,18.60
2018-05-14T09:49:32.628Z,18.70
2018-05-14T09:52:00.860Z,18.70
2018-05-14T09:54:29.058Z,18.70
2018-05-14T09:56:57.260Z,18.80
2018-05-14T09:59:25.487Z,18.80
2018-05-14T10:01:53.694Z,18.90
2018-05-14T10:04:21.886Z,18.90
2018-05-14T10:06:50.084Z,19.00
2018-05-14T10:09:18.289Z,19.00
2018-05-14T10:11:47.233Z,19.10
2018-05-14T10:14:15.479Z,19.10
2018-05-14T10:16:43.653Z,19.10
2018-05-14T10:19:11.830Z,19.10
2018-05-14T10:21:40.056Z,19.20
2018-05-14T10:24:08.263Z,19.30
2018-05-14T10:26:37.206Z,19.40
2018-05-14T10:29:05.409Z,19.50
2018-05-14T10:31:33.589Z,19.70
2018-05-14T10:34:01.775Z,19.80
2018-05-14T10:36:29.965Z,20.00
2018-05-14T10:38:58.144Z,20.10
2018-05-14T10:41:26.330Z,20.30
2018-05-14T10:43:54.545Z,20.40
2018-05-14T10:46:22.735Z,20.40
2018-05-14T10:48:50.917Z,20.50
2018-05-14T10:51:19.117Z,20.40
2018-05-14T10:53:47.298Z,20.30
2018-05-14T10:56:15.537Z,20.30
2018-05-14T10:58:43.764Z,20.40
2018-05-14T11:01:12.010Z,20.10
2018-05-14T11:03:40.451Z,20.30
2018-05-14T11:06:09.548Z,20.30
2018-05-14T11:08:37.739Z,20.30
2018-05-14T11:11:05.943Z,20.40
2018-05-14T11:13:34.949Z,20.40
2018-05-14T11:16:03.362Z,20.50
2018-05-14T11:18:31.624Z,20.60
2018-05-14T11:20:59.902Z,20.60
2018-05-14T11:23:28.162Z,20.60
2018-05-14T11:25:56.345Z,20.60
2018-05-14T11:28:24.606Z,20.70
2018-05-14T11:30:52.774Z,20.80
2018-05-14T11:33:20.949Z,20.90
2018-05-14T11:35:49.175Z,21.00
2018-05-14T11:38:18.186Z,21.10
2018-05-14T11:40:47.180Z,21.20
2018-05-14T11:43:15.388Z,21.20
2018-05-14T11:45:43.560Z,21.20
2018-05-14T11:48:11.749Z,21.20
2018-05-14T11:50:39.937Z,21.30
2018-05-14T11:53:08.115Z,21.30
2018-05-14T11:55:36.287Z,21.50
2018-05-14T11:58:04.488Z,21.60
2018-05-14T12:00:32.672Z,21.70
2018-05-14T12:03:01.769Z,21.80
2018-05-14T12:05:29.923Z,21.90
2018-05-14T12:07:58.966Z,22.00
2018-05-14T12:10:27.224Z,22.10
2018-05-14T12:12:55.423Z,22.20
2018-05-14T12:15:23.604Z,22.30
2018-05-14T12:17:51.775Z,22.30
2018-05-14T12:20:19.970Z,22.30
2018-05-14T12:22:48.147Z,22.20
2018-05-14T12:25:16.333Z,22.10
2018-05-14T12:27:44.528Z,22.10
2018-05-14T12:30:12.717Z,22.00
2018-05-14T12:32:41.636Z,22.00
2018-05-14T12:35:09.835Z,22.00
2018-05-14T12:37:38.931Z,22.10
2018-05-14T12:40:08.550Z,22.10
2018-05-14T12:42:38.149Z,22.10
2018-05-14T12:45:07.310Z,22.10
2018-05-14T12:47:36.702Z,22.10
2018-05-14T12:50:05.783Z,22.10
2018-05-14T12:52:34.896Z,22.10
2018-05-14T12:55:05.063Z,22.10
2018-05-14T12:57:34.564Z,22.20
2018-05-14T13:00:03.744Z,22.20
2018-05-14T13:02:33.016Z,22.20
2018-05-14T13:05:02.659Z,22.20
2018-05-14T13:07:31.768Z,22.20
2018-05-14T13:10:01.077Z,22.30
2018-05-14T13:12:29.296Z,22.40
2018-05-14T13:14:58.372Z,22.40
2018-05-14T13:17:27.500Z,22.40
2018-05-14T13:19:56.493Z,22.40
2018-05-14T13:22:26.105Z,22.40
2018-05-14T13:24:55.791Z,22.40
2018-05-14T13:27:27.280Z,22.40
2018-05-14T13:29:57.626Z,22.40
2018-05-14T13:32:27.297Z,22.50
2018-05-14T13:34:55.524Z,22.50
2018-05-14T13:37:23.763Z,22.60
2018-05-14T13:39:51.941Z,22.70
2018-05-14T13:42:20.135Z,22.70
2018-05-14T13:44:48.309Z,22.80
2018-05-14T13:47:17.798Z,22.90
2018-05-14T13:49:46.873Z,23.10
2018-05-14T13:52:15.092Z,23.30
2018-05-14T13:54:43.333Z,23.70
2018-05-14T13:57:11.536Z,24.50
2018-05-14T13:59:39.710Z,25.60
2018-05-14T14:02:07.952Z,26.90
2018-05-14T14:04:36.732Z,28.10
2018-05-14T14:07:05.668Z,29.20
2018-05-14T14:09:33.915Z,30.10
2018-05-14T14:12:02.120Z,31.20
2018-05-14T14:14:31.190Z,32.10
2018-05-14T14:16:59.401Z,32.50
2018-05-14T14:19:27.585Z,33.10
2018-05-14T14:21:55.778Z,33.50
2018-05-14T14:24:24.032Z,33.80
2018-05-14T14:26:52.267Z,34.10
2018-05-14T14:29:20.436Z,34.50
2018-05-14T14:31:48.634Z,34.90
2018-05-14T14:34:16.846Z,35.30
2018-05-14T14:36:45.008Z,36.00
2018-05-14T14:39:13.224Z,36.90
2018-05-14T14:41:42.164Z,37.80
2018-05-14T14:44:10.341Z,38.60
2018-05-14T14:46:38.530Z,39.20
2018-05-14T14:49:06.741Z,39.40
2018-05-14T14:51:34.932Z,39.50
2018-05-14T14:54:03.127Z,39.60
2018-05-14T14:56:31.313Z,39.60
2018-05-14T14:59:00.370Z,39.80
2018-05-14T15:01:28.567Z,39.80
2018-05-14T15:03:56.745Z,39.70
2018-05-14T15:06:24.986Z,39.50
2018-05-14T15:08:54.803Z,39.20
2018-05-14T15:11:23.528Z,38.90
2018-05-14T15:13:51.713Z,38.90
2018-05-14T15:16:19.905Z,39.00
2018-05-14T15:18:48.077Z,39.00
2018-05-14T15:21:16.252Z,39.40
2018-05-14T15:23:44.450Z,40.00
2018-05-14T15:26:12.617Z,40.30
2018-05-14T15:28:41.551Z,40.30
2018-05-14T15:31:09.754Z,40.10
2018-05-14T15:33:37.952Z,40.00
2018-05-14T15:36:06.152Z,39.90
2018-05-14T15:38:34.375Z,39.70
2018-05-14T15:41:02.661Z,39.70
2018-05-14T15:43:30.831Z,39.60
2018-05-14T15:45:59.484Z,39.40
2018-05-14T15:48:27.648Z,39.10
2018-05-14T15:50:55.839Z,38.90
2018-05-14T15:53:24.051Z,39.10
2018-05-14T15:55:52.225Z,39.20
2018-05-14T15:58:20.514Z,39.30
2018-05-14T16:00:48.842Z,39.10
2018-05-14T16:03:17.017Z,39.20
2018-05-14T16:05:45.236Z,39.00
2018-05-14T16:08:13.433Z,39.00
2018-05-14T16:10:41.615Z,39.20
2018-05-14T16:13:09.823Z,39.30
2018-05-14T16:15:38.045Z,39.30
2018-05-14T16:18:07.018Z,39.30
2018-05-14T16:20:35.236Z,39.40
2018-05-14T16:23:03.443Z,39.30
2018-05-14T16:25:32.856Z,39.00
2018-05-14T16:28:01.062Z,38.60
2018-05-14T16:30:29.271Z,38.30
2018-05-14T16:32:57.458Z,38.20
2018-05-14T16:35:25.679Z,38.20
2018-05-14T16:37:53.875Z,38.30
2018-05-14T16:40:22.059Z,38.30
2018-05-14T16:42:50.245Z,38.20
2018-05-14T16:45:18.406Z,37.90
2018-05-14T16:47:46.577Z,37.70
2018-05-14T16:50:14.812Z,37.60
2018-05-14T16:52:42.971Z,37.40
2018-05-14T16:55:11.206Z,37.40
2018-05-14T16:57:39.522Z,37.30
2018-05-14T17:00:07.818Z,36.90
2018-05-14T17:02:36.759Z,36.70
2018-05-14T17:05:05.006Z,36.60
2018-05-14T17:07:33.952Z,36.50
2018-05-14T17:10:02.134Z,36.40
2018-05-14T17:12:31.057Z,36.30
2018-05-14T17:14:59.243Z,36.00
2018-05-14T17:17:27.600Z,36.00
2018-05-14T17:19:56.496Z,35.80
2018-05-14T17:22:24.685Z,35.80
2018-05-14T17:24:53.638Z,35.80
2018-05-14T17:27:21.861Z,35.90
2018-05-14T17:29:50.626Z,35.80
2018-05-14T17:32:19.725Z,35.60
2018-05-14T17:34:47.938Z,35.40
2018-05-14T17:37:16.115Z,35.30
2018-05-14T17:39:45.168Z,35.30
2018-05-14T17:42:13.381Z,35.20
2018-05-14T17:44:41.576Z,35.20
2018-05-14T17:47:09.760Z,35.10
2018-05-14T17:49:37.961Z,35.10
2018-05-14T17:52:06.181Z,35.10
2018-05-14T17:54:34.402Z,34.90
2018-05-14T17:57:03.363Z,34.70
2018-05-14T17:59:31.616Z,34.50
2018-05-14T18:01:59.781Z,34.20
2018-05-14T18:04:29.335Z,34.10
2018-05-14T18:06:58.224Z,34.10
2018-05-14T18:09:27.215Z,33.90
2018-05-14T18:11:56.359Z,33.70
2018-05-14T18:14:26.032Z,33.30
2018-05-14T18:16:55.988Z,33.10
2018-05-14T18:19:25.927Z,32.80
2018-05-14T18:22:00.430Z,32.70
2018-05-14T18:24:29.752Z,32.60
2018-05-14T18:26:58.724Z,32.50
2018-05-14T18:29:32.085Z,32.40
2018-05-14T18:32:05.784Z,32.30
2018-05-14T18:34:40.065Z,32.00
2018-05-14T18:37:09.520Z,31.60
2018-05-14T18:39:38.808Z,31.40
2018-05-14T18:42:08.841Z,31.10
2018-05-14T18:44:37.906Z,30.80
2018-05-14T18:47:06.820Z,30.60
2018-05-14T18:49:35.155Z,30.40
2018-05-14T18:52:03.376Z,30.10
2018-05-14T18:54:31.593Z,29.50
2018-05-14T18:56:59.807Z,28.90
2018-05-14T18:59:27.977Z,28.30
2018-05-14T19:01:56.176Z,27.80
2018-05-14T19:04:24.377Z,27.30
2018-05-14T19:06:53.312Z,26.90
2018-05-14T19:09:21.533Z,26.50
2018-05-14T19:11:52.547Z,26.10
2018-05-14T19:14:20.787Z,25.80
2018-05-14T19:16:54.484Z,25.60
2018-05-14T19:19:22.690Z,25.30
2018-05-14T19:21:50.872Z,25.10
2018-05-14T19:24:19.073Z,24.80
2018-05-14T19:26:47.252Z,24.60
2018-05-14T19:29:20.914Z,24.40
2018-05-14T19:31:49.054Z,24.30
2018-05-14T19:34:22.718Z,24.10
2018-05-14T19:36:50.948Z,23.90
2018-05-14T19:39:24.668Z,23.70
2018-05-14T19:41:52.849Z,23.60
2018-05-14T19:44:21.025Z,23.40
2018-05-14T19:46:49.286Z,23.30
2018-05-14T19:49:17.481Z,23.10
2018-05-14T19:51:45.662Z,23.00
2018-05-14T19:54:13.893Z,22.80
2018-05-14T19:56:42.088Z,22.70
2018-05-14T19:59:10.273Z,22.60
2018-05-14T20:01:38.480Z,22.50
2018-05-14T20:04:06.726Z,22.30
2018-05-14T20:06:34.934Z,22.20
2018-05-14T20:09:03.152Z,22.10
2018-05-14T20:11:31.365Z,22.00
2018-05-14T20:13:59.549Z,21.90
2018-05-14T20:16:27.772Z,21.80
2018-05-14T20:18:56.246Z,21.60
2018-05-14T20:21:24.418Z,21.50
2018-05-14T20:23:52.629Z,21.40
2018-05-14T20:26:20.818Z,21.30
2018-05-14T20:28:49.775Z,21.10
2018-05-14T20:31:18.074Z,21.00
2018-05-14T20:33:46.264Z,20.90
2018-05-14T20:36:14.510Z,20.80
2018-05-14T20:38:42.698Z,20.70
2018-05-14T20:41:10.912Z,20.60
2018-05-14T20:43:39.145Z,20.50
2018-05-14T20:46:07.376Z,20.40
2018-05-14T20:48:35.578Z,20.30
2018-05-14T20:51:03.816Z,20.20
2018-05-14T20:53:32.019Z,20.10
2018-05-14T20:56:00.221Z,20.00
2018-05-14T20:58:28.397Z,20.00
2018-05-14T21:00:56.643Z,19.90
2018-05-14T21:03:24.851Z,19.80
2018-05-14T21:05:53.330Z,19.70
2018-05-14T21:08:22.442Z,19.70
2018-05-14T21:10:52.530Z,19.60
2018-05-14T21:13:22.692Z,19.50
2018-05-14T21:15:52.084Z,19.40
2018-05-14T21:18:21.303Z,19.30
2018-05-14T21:20:50.743Z,19.30
2018-05-14T21:23:19.046Z,19.20
2018-05-14T21:25:47.227Z,19.20
2018-05-14T21:28:15.438Z,19.10
2018-05-14T21:30:44.571Z,19.10
2018-05-14T21:33:12.757Z,18.90
2018-05-14T21:35:41.866Z,18.90
2018-05-14T21:38:10.049Z,18.80
2018-05-14T21:40:38.243Z,18.70
2018-05-14T21:43:07.253Z,18.70
2018-05-14T21:45:35.510Z,18.60
2018-05-14T21:48:03.723Z,18.60
2018-05-14T21:50:32.409Z,18.50
2018-05-14T21:53:01.386Z,18.40
2018-05-14T21:55:29.598Z,18.40
2018-05-14T21:57:57.808Z,18.30
2018-05-14T22:00:25.999Z,18.20
2018-05-14T22:02:54.192Z,18.20
2018-05-14T22:05:22.394Z,18.10
2018-05-14T22:07:50.729Z,18.10
2018-05-14T22:10:18.921Z,18.00
2018-05-14T22:12:48.690Z,17.90
2018-05-14T22:15:16.922Z,17.90
2018-05-14T22:17:45.137Z,17.80
2018-05-14T22:20:13.353Z,17.80
2018-05-14T22:22:42.294Z,17.70
2018-05-14T22:25:10.567Z,17.40
2018-05-14T22:27:38.764Z,17.60
2018-05-14T22:30:07.011Z,17.60
2018-05-14T22:32:35.448Z,17.50
2018-05-14T22:35:03.696Z,17.40
2018-05-14T22:37:31.883Z,17.40
2018-05-14T22:40:00.098Z,17.30
2018-05-14T22:42:28.297Z,17.30
2018-05-14T22:44:56.762Z,17.20
2018-05-14T22:47:24.937Z,17.20
2018-05-14T22:49:53.146Z,17.20
2018-05-14T22:52:21.342Z,17.10
2018-05-14T22:54:49.529Z,17.10
2018-05-14T22:57:18.516Z,17.00
2018-05-14T22:59:46.717Z,17.00
2018-05-14T23:02:15.902Z,17.00
2018-05-14T23:04:44.161Z,16.90
2018-05-14T23:07:12.413Z,16.90
2018-05-14T23:09:41.366Z,16.80
2018-05-14T23:12:09.536Z,16.80
2018-05-14T23:14:37.741Z,16.80
2018-05-14T23:17:05.938Z,16.70
2018-05-14T23:19:52.041Z,16.70
2018-05-14T23:22:20.359Z,16.70
2018-05-14T23:24:48.711Z,16.60
2018-05-14T23:27:17.690Z,16.60
2018-05-14T23:29:45.877Z,16.60
2018-05-14T23:32:14.058Z,16.60
2018-05-14T23:34:42.254Z,16.60
2018-05-14T23:37:10.458Z,16.70
2018-05-14T23:39:38.651Z,16.70
2018-05-14T23:42:09.338Z,16.70
2018-05-14T23:44:37.565Z,16.70
2018-05-14T23:47:06.499Z,16.70
2018-05-14T23:49:34.713Z,16.70
2018-05-14T23:52:03.495Z,16.70
2018-05-14T23:54:31.765Z,16.70
2018-05-14T23:56:59.958Z,16.70
2018-05-14T23:59:28.166Z,16.70
